AYNZ/LAE METAR and TAF weather

Enter ICAO airport designator
Station Type Date Time Source
AYNZ METAR 2019/02/23 07:00 UTC NOAA

AYNZ 230700Z 07015KT 9999 SCT040 30/22 Q1006 RMK


Station Type Date Time Source
AYNZ Decoded METAR 2019/02/23 07:00 UTC NOAA

Station name not available
Feb 23, 2019 - 02:00 AM EST / 2019.02.23 0700 UTC
Wind: from the ENE (070 degrees) at 17 MPH (15 KT):0
Visibility: greater than 7 mile(s):0
Sky conditions: partly cloudy
Temperature: 86 F (30 C)
Heat index: 91.8 F (33.2 C):1
Dew Point: 71 F (22 C)
Relative Humidity: 62%
Pressure (altimeter): 29.71 in. Hg (1006 hPa)
ob: AYNZ 230700Z 07015KT 9999 SCT040 30/22 Q1006 RMK
cycle: 7

Station Type Date Time Source
AYNZ TAF 2015/08/19 08:15 UTC NOAA

TAF AYNZ 190550Z 1908/1920 09015KT 9999 SCT020 SCT120
FM191400 VRB03KT 9999 BKN040 Q 1011 1014 1013 1010


Example: see airport list